Terminal Aerodrome Forecast
Issued by NWS

Home | Current Version | Previous Version | Text Only | Print | Product List | Glossary On
Versions: 1 2 3 4 5 6 7 8 9 10 11 12 13 14 15 16 17 18 19
000
FTUS41 KALY 162334
TAFPSF
TAF
KPSF 162334Z 1700/1724 00000KT P6SM BKN250
     FM170800 00000KT P6SM BKN100 OVC250
     FM171200 VRB03KT P6SM BKN050 OVC080
     FM171500 VRB03KT P6SM SCT025 OVC050
      TEMPO 1715/1719 4SM -RASNPL BKN025 OVC050
     FM171900 12006KT 3SM -RA BR OVC015=

USA.gov is the U.S. government's official web portal to all federal, state and local government web resources and services.